createdAt,value
2019-03-04T00:00:07.657Z,0.00
2019-03-04T00:02:00.578Z,0.00
2019-03-04T00:03:00.581Z,0.00
2019-03-04T00:04:53.495Z,0.00
2019-03-04T00:05:53.496Z,0.00
2019-03-04T00:07:46.399Z,0.00
2019-03-04T00:08:46.415Z,0.00
2019-03-04T00:10:39.329Z,0.00
2019-03-04T00:11:39.340Z,0.00
2019-03-04T00:13:32.250Z,0.00
2019-03-04T00:14:32.258Z,0.00
2019-03-04T00:16:25.163Z,0.00
2019-03-04T00:17:25.176Z,0.00
2019-03-04T00:19:18.093Z,0.00
2019-03-04T00:20:18.098Z,0.00
2019-03-04T00:22:11.000Z,0.00
2019-03-04T00:23:11.014Z,0.00
2019-03-04T00:25:03.941Z,0.00
2019-03-04T00:26:03.940Z,0.00
2019-03-04T00:27:56.849Z,0.00
2019-03-04T00:28:56.895Z,0.00
2019-03-04T00:30:49.774Z,0.00
2019-03-04T00:31:49.780Z,0.00
2019-03-04T00:33:42.689Z,0.00
2019-03-04T00:34:42.716Z,0.00
2019-03-04T00:36:35.606Z,0.00
2019-03-04T00:37:35.618Z,0.00
2019-03-04T00:39:28.596Z,0.00
2019-03-04T00:40:28.538Z,0.00
2019-03-04T00:42:21.441Z,0.00
2019-03-04T00:43:21.455Z,0.00
2019-03-04T00:45:14.367Z,0.00
2019-03-04T00:46:14.394Z,0.00
2019-03-04T00:48:07.317Z,0.00
2019-03-04T00:49:07.321Z,0.00
2019-03-04T00:51:00.481Z,0.00
2019-03-04T00:52:00.214Z,0.00
2019-03-04T00:53:53.147Z,0.00
2019-03-04T00:54:53.156Z,0.00
2019-03-04T00:56:46.061Z,0.00
2019-03-04T00:57:46.076Z,0.00
2019-03-04T00:59:38.986Z,0.00
2019-03-04T01:00:38.992Z,0.00
2019-03-04T01:02:31.909Z,0.00
2019-03-04T01:03:31.919Z,0.00
2019-03-04T01:05:24.831Z,0.00
2019-03-04T01:06:24.839Z,0.00
2019-03-04T01:08:17.745Z,0.00
2019-03-04T01:09:17.759Z,0.00
2019-03-04T01:11:10.671Z,0.00
2019-03-04T01:12:10.682Z,0.00
2019-03-04T01:14:03.592Z,0.00
2019-03-04T01:15:03.597Z,0.00
2019-03-04T01:16:56.502Z,0.00
2019-03-04T01:17:56.521Z,0.00
2019-03-04T01:19:49.433Z,0.00
2019-03-04T01:20:49.438Z,0.00
2019-03-04T01:22:42.343Z,0.00
2019-03-04T01:23:42.357Z,0.00
2019-03-04T01:25:35.272Z,0.00
2019-03-04T01:26:35.280Z,0.00
2019-03-04T01:28:28.187Z,0.00
2019-03-04T01:29:28.198Z,0.00
2019-03-04T01:31:21.108Z,0.00
2019-03-04T01:32:21.115Z,0.00
2019-03-04T01:34:14.031Z,0.00
2019-03-04T01:35:14.033Z,0.00
2019-03-04T01:37:06.941Z,0.00
2019-03-04T01:38:06.956Z,0.00
2019-03-04T01:39:59.867Z,0.00
2019-03-04T01:40:59.874Z,0.00
2019-03-04T01:42:52.778Z,0.00
2019-03-04T01:43:52.795Z,0.00
2019-03-04T01:45:45.703Z,0.00
2019-03-04T01:46:45.713Z,0.00
2019-03-04T01:48:38.618Z,0.00
2019-03-04T01:49:38.632Z,0.00
2019-03-04T01:51:31.545Z,0.00
2019-03-04T01:52:31.550Z,0.00
2019-03-04T01:54:24.465Z,0.00
2019-03-04T01:55:24.469Z,0.00
2019-03-04T01:57:17.379Z,0.00
2019-03-04T01:58:17.387Z,0.00
2019-03-04T02:00:10.302Z,0.00
2019-03-04T02:01:10.310Z,0.00
2019-03-04T02:03:03.215Z,0.00
2019-03-04T02:04:03.230Z,0.00
2019-03-04T02:05:56.140Z,0.00
2019-03-04T02:06:56.148Z,0.00
2019-03-04T02:08:49.054Z,0.00
2019-03-04T02:09:49.069Z,0.00
2019-03-04T02:11:41.981Z,0.00
2019-03-04T02:12:41.988Z,0.00
2019-03-04T02:14:34.901Z,0.00
2019-03-04T02:15:34.908Z,0.00
2019-03-04T02:17:27.812Z,0.00
2019-03-04T02:18:27.827Z,0.00
2019-03-04T02:20:20.746Z,0.00
2019-03-04T02:21:20.746Z,0.00
2019-03-04T02:23:13.701Z,0.00
2019-03-04T02:24:13.665Z,0.00
2019-03-04T02:26:06.587Z,0.00
2019-03-04T02:27:06.584Z,0.00
2019-03-04T02:28:59.486Z,0.00
2019-03-04T02:29:59.500Z,0.00
2019-03-04T02:31:52.415Z,0.00
2019-03-04T02:32:52.435Z,0.00
2019-03-04T02:34:45.340Z,0.00
2019-03-04T02:35:45.344Z,0.00
2019-03-04T02:37:38.253Z,0.00
2019-03-04T02:38:38.272Z,0.00
2019-03-04T02:40:31.195Z,0.00
2019-03-04T02:41:31.232Z,0.00
2019-03-04T02:43:24.104Z,0.00
2019-03-04T02:44:24.123Z,0.00
2019-03-04T02:46:17.032Z,0.00
2019-03-04T02:47:17.051Z,0.00
2019-03-04T02:49:09.942Z,0.00
2019-03-04T02:50:09.979Z,0.00
2019-03-04T02:52:02.869Z,0.00
2019-03-04T02:53:02.878Z,0.00
2019-03-04T02:54:55.793Z,0.00
2019-03-04T02:55:55.794Z,0.00
2019-03-04T02:57:48.701Z,0.00
2019-03-04T02:58:48.714Z,0.00
2019-03-04T03:00:41.667Z,0.00
2019-03-04T03:01:41.634Z,0.00
2019-03-04T03:03:34.540Z,0.00
2019-03-04T03:04:34.553Z,0.00
2019-03-04T03:06:27.465Z,0.00
2019-03-04T03:07:27.473Z,0.00
2019-03-04T03:09:20.376Z,0.00
2019-03-04T03:10:20.397Z,0.00
2019-03-04T03:12:13.303Z,0.00
2019-03-04T03:13:13.312Z,0.00
2019-03-04T03:15:06.223Z,0.00
2019-03-04T03:16:06.230Z,0.00
2019-03-04T03:17:59.244Z,0.00
2019-03-04T03:18:59.152Z,0.00
2019-03-04T03:20:52.087Z,0.00
2019-03-04T03:21:52.102Z,0.00
2019-03-04T03:23:45.844Z,0.00
2019-03-04T03:24:45.864Z,0.00
2019-03-04T03:26:38.770Z,0.00
2019-03-04T03:27:38.785Z,0.00
2019-03-04T03:29:31.683Z,0.00
2019-03-04T03:30:31.705Z,0.00
2019-03-04T03:32:24.613Z,0.00
2019-03-04T03:33:24.619Z,0.00
2019-03-04T03:35:17.536Z,0.00
2019-03-04T03:36:17.535Z,0.00
2019-03-04T03:38:10.438Z,0.00
2019-03-04T03:39:10.457Z,0.00
2019-03-04T03:41:03.365Z,0.00
2019-03-04T03:42:03.373Z,0.00
2019-03-04T03:43:56.280Z,0.00
2019-03-04T03:44:56.309Z,0.00
2019-03-04T03:46:49.235Z,0.00
2019-03-04T03:47:49.215Z,0.00
2019-03-04T03:49:42.157Z,0.00
2019-03-04T03:50:42.214Z,0.00
2019-03-04T03:52:35.078Z,0.00
2019-03-04T03:53:35.088Z,0.00
2019-03-04T03:55:27.998Z,0.00
2019-03-04T03:56:28.006Z,0.00
2019-03-04T03:58:20.911Z,0.00
2019-03-04T03:59:20.927Z,0.00
2019-03-04T04:01:13.837Z,0.00
2019-03-04T04:02:13.845Z,0.00
2019-03-04T04:04:06.750Z,0.00
2019-03-04T04:05:06.767Z,0.00
2019-03-04T04:06:59.678Z,0.00
2019-03-04T04:07:59.683Z,0.00
2019-03-04T04:09:52.590Z,0.00
2019-03-04T04:10:52.614Z,0.00
2019-03-04T04:12:45.511Z,0.00
2019-03-04T04:13:45.520Z,0.00
2019-03-04T04:15:38.432Z,0.00
2019-03-04T04:16:38.435Z,0.00
2019-03-04T04:18:31.341Z,0.00
2019-03-04T04:19:31.354Z,0.00
2019-03-04T04:21:24.267Z,0.00
2019-03-04T04:22:24.274Z,0.00
2019-03-04T04:24:17.176Z,0.00
2019-03-04T04:25:17.196Z,0.00
2019-03-04T04:27:10.102Z,0.00
2019-03-04T04:28:10.111Z,0.00
2019-03-04T04:30:03.013Z,0.00
2019-03-04T04:31:03.027Z,0.00
2019-03-04T04:32:55.961Z,0.00
2019-03-04T04:33:55.948Z,0.00
2019-03-04T04:35:48.861Z,0.00
2019-03-04T04:36:48.868Z,0.00
2019-03-04T04:38:41.776Z,0.00
2019-03-04T04:39:41.787Z,0.00
2019-03-04T04:41:34.704Z,0.00
2019-03-04T04:42:34.705Z,0.00
2019-03-04T04:44:27.616Z,0.00
2019-03-04T04:45:27.627Z,0.00
2019-03-04T04:47:20.541Z,0.00
2019-03-04T04:48:20.548Z,0.00
2019-03-04T04:50:13.454Z,0.00
2019-03-04T04:51:13.466Z,0.00
2019-03-04T04:53:06.381Z,0.00
2019-03-04T04:54:06.386Z,0.00
2019-03-04T04:55:59.292Z,0.00
2019-03-04T04:56:59.301Z,0.00
2019-03-04T04:58:52.207Z,0.00
2019-03-04T04:59:52.222Z,0.00
2019-03-04T05:01:45.135Z,0.00
2019-03-04T05:02:45.138Z,0.00
2019-03-04T05:04:38.045Z,0.00
2019-03-04T05:05:38.061Z,0.00
2019-03-04T05:07:30.972Z,0.00
2019-03-04T05:08:30.980Z,0.00
2019-03-04T05:10:23.882Z,0.00
2019-03-04T05:11:23.898Z,0.00
2019-03-04T05:13:16.809Z,0.00
2019-03-04T05:14:16.815Z,0.00
2019-03-04T05:16:09.729Z,0.00
2019-03-04T05:17:09.737Z,0.00
2019-03-04T05:19:02.640Z,0.00
2019-03-04T05:20:02.654Z,0.00
2019-03-04T05:21:55.565Z,0.00
2019-03-04T05:22:55.572Z,0.00
2019-03-04T05:24:48.479Z,0.00
2019-03-04T05:25:48.493Z,0.00
2019-03-04T05:27:41.404Z,0.00
2019-03-04T05:28:41.410Z,0.00
2019-03-04T05:30:34.316Z,0.00
2019-03-04T05:31:34.328Z,0.00
2019-03-04T05:33:27.244Z,0.00
2019-03-04T05:34:27.247Z,0.00
2019-03-04T05:36:20.166Z,0.00
2019-03-04T05:37:20.168Z,0.00
2019-03-04T05:39:13.085Z,0.00
2019-03-04T05:40:13.089Z,0.00
2019-03-04T05:42:06.005Z,0.00
2019-03-04T05:43:06.014Z,4.00
2019-03-04T05:44:58.918Z,0.00
2019-03-04T05:45:58.931Z,4.00
2019-03-04T05:47:51.847Z,0.00
2019-03-04T05:48:51.855Z,4.00
2019-03-04T05:50:44.762Z,4.00
2019-03-04T05:51:44.773Z,4.00
2019-03-04T05:53:37.685Z,4.00
2019-03-04T05:54:37.693Z,8.00
2019-03-04T05:56:30.610Z,8.00
2019-03-04T05:57:30.617Z,16.00
2019-03-04T05:59:23.544Z,20.00
2019-03-04T06:00:23.536Z,24.00
2019-03-04T06:02:16.450Z,28.00
2019-03-04T06:03:16.457Z,20.00
2019-03-04T06:05:09.365Z,28.00
2019-03-04T06:06:09.379Z,24.00
2019-03-04T06:08:02.291Z,44.00
2019-03-04T06:09:02.303Z,52.00
2019-03-04T06:10:55.204Z,64.00
2019-03-04T06:11:55.218Z,44.00
2019-03-04T06:13:48.135Z,52.00
2019-03-04T06:14:48.142Z,80.00
2019-03-04T06:16:47.283Z,132.00
2019-03-04T06:17:41.057Z,140.00
2019-03-04T06:19:33.978Z,96.00
2019-03-04T06:20:33.994Z,96.00
2019-03-04T06:22:27.416Z,124.00
2019-03-04T06:23:27.413Z,132.00
2019-03-04T06:25:20.473Z,228.00
2019-03-04T06:26:20.333Z,216.00
2019-03-04T06:28:13.248Z,208.00
2019-03-04T06:29:13.254Z,192.00
2019-03-04T06:31:06.211Z,188.00
2019-03-04T06:32:06.186Z,168.00
2019-03-04T06:33:59.090Z,204.00
2019-03-04T06:34:59.101Z,296.00
2019-03-04T06:36:53.096Z,528.00
2019-03-04T06:37:52.044Z,576.00
2019-03-04T06:39:44.953Z,524.00
2019-03-04T06:40:44.963Z,520.00
2019-03-04T06:42:37.883Z,692.00
2019-03-04T06:43:37.899Z,880.00
2019-03-04T06:45:30.811Z,1632.00
2019-03-04T06:46:30.820Z,2140.00
2019-03-04T06:48:23.755Z,2044.00
2019-03-04T06:49:24.259Z,2172.00
2019-03-04T06:51:16.651Z,1852.00
2019-03-04T06:52:16.664Z,2032.00
2019-03-04T06:54:09.575Z,1848.00
2019-03-04T06:55:09.582Z,1892.00
2019-03-04T06:57:02.499Z,1400.00
2019-03-04T06:58:02.506Z,1004.00
2019-03-04T06:59:55.451Z,292.00
2019-03-04T07:00:55.428Z,204.00
2019-03-04T07:02:48.389Z,92.00
2019-03-04T07:03:48.345Z,84.00
2019-03-04T07:05:41.253Z,156.00
2019-03-04T07:06:41.270Z,224.00
2019-03-04T07:08:34.183Z,364.00
2019-03-04T07:09:34.187Z,396.00
2019-03-04T07:11:27.144Z,680.00
2019-03-04T07:12:27.103Z,660.00
2019-03-04T07:14:20.014Z,744.00
2019-03-04T07:15:20.018Z,932.00
2019-03-04T07:17:12.935Z,1204.00
2019-03-04T07:18:12.948Z,1264.00
2019-03-04T07:20:05.871Z,1104.00
2019-03-04T07:21:05.868Z,916.00
2019-03-04T07:22:58.765Z,660.00
2019-03-04T07:23:58.770Z,688.00
2019-03-04T07:25:51.681Z,720.00
2019-03-04T07:26:51.687Z,772.00
2019-03-04T07:28:44.597Z,848.00
2019-03-04T07:29:44.601Z,1100.00
2019-03-04T07:31:37.505Z,1156.00
2019-03-04T07:32:37.518Z,1276.00
2019-03-04T07:34:30.424Z,1092.00
2019-03-04T07:35:30.429Z,860.00
2019-03-04T07:37:23.353Z,732.00
2019-03-04T07:38:23.348Z,828.00
2019-03-04T07:40:16.493Z,700.00
2019-03-04T07:41:16.268Z,532.00
2019-03-04T07:43:09.178Z,480.00
2019-03-04T07:44:09.182Z,436.00
2019-03-04T07:46:02.090Z,504.00
2019-03-04T07:47:02.122Z,800.00
2019-03-04T07:48:55.028Z,1108.00
2019-03-04T07:49:55.033Z,1128.00
2019-03-04T07:51:47.935Z,2656.00
2019-03-04T07:52:47.948Z,2168.00
2019-03-04T07:54:40.857Z,2272.00
2019-03-04T07:55:40.863Z,2760.00
2019-03-04T07:57:33.770Z,2992.00
2019-03-04T07:58:33.815Z,2280.00
2019-03-04T08:00:26.695Z,2424.00
2019-03-04T08:01:26.696Z,2728.00
2019-03-04T08:03:19.621Z,3008.00
2019-03-04T08:04:19.624Z,2632.00
2019-03-04T08:06:12.535Z,2248.00
2019-03-04T08:07:12.546Z,2684.00
2019-03-04T08:09:05.465Z,2324.00
2019-03-04T08:10:05.461Z,2328.00
2019-03-04T08:11:58.366Z,2640.00
2019-03-04T08:12:58.371Z,2892.00
2019-03-04T08:14:51.289Z,2384.00
2019-03-04T08:15:51.292Z,2716.00
2019-03-04T08:17:44.206Z,4320.00
2019-03-04T08:18:44.228Z,4368.00
2019-03-04T08:20:37.115Z,4424.00
2019-03-04T08:21:37.128Z,4628.00
2019-03-04T08:23:30.037Z,5584.00
2019-03-04T08:24:30.045Z,5304.00
2019-03-04T08:26:22.952Z,3212.00
2019-03-04T08:27:22.962Z,3056.00
2019-03-04T08:29:15.882Z,2756.00
2019-03-04T08:30:15.886Z,2724.00
2019-03-04T08:32:08.792Z,2800.00
2019-03-04T08:33:08.805Z,2800.00
2019-03-04T08:35:01.738Z,4072.00
2019-03-04T08:36:01.745Z,4700.00
2019-03-04T08:37:54.668Z,5632.00
2019-03-04T08:38:54.663Z,6968.00
2019-03-04T08:40:48.561Z,7728.00
2019-03-04T08:41:48.578Z,7520.00
2019-03-04T08:43:41.542Z,7032.00
2019-03-04T08:44:41.550Z,7096.00
2019-03-04T08:46:35.392Z,6060.00
2019-03-04T08:47:35.406Z,5972.00
2019-03-04T08:49:28.347Z,5540.00
2019-03-04T08:50:28.356Z,6076.00
2019-03-04T08:52:21.258Z,7208.00
2019-03-04T08:53:21.273Z,7104.00
2019-03-04T08:55:14.182Z,6164.00
2019-03-04T08:56:14.189Z,5960.00
2019-03-04T08:58:07.104Z,6328.00
2019-03-04T08:59:07.111Z,6124.00
2019-03-04T09:01:00.019Z,4896.00
2019-03-04T09:02:00.036Z,6060.00
2019-03-04T09:03:52.991Z,6924.00
2019-03-04T09:04:52.952Z,7016.00
2019-03-04T09:06:45.861Z,6404.00
2019-03-04T09:07:45.873Z,5776.00
2019-03-04T09:09:38.816Z,4792.00
2019-03-04T09:10:38.796Z,5468.00
2019-03-04T09:12:31.712Z,4156.00
2019-03-04T09:13:31.726Z,3616.00
2019-03-04T09:15:24.664Z,4200.00
2019-03-04T09:16:24.669Z,5072.00
2019-03-04T09:18:17.589Z,4772.00
2019-03-04T09:19:17.597Z,4312.00
2019-03-04T09:21:10.532Z,5612.00
2019-03-04T09:22:10.520Z,4184.00
2019-03-04T09:24:03.455Z,3116.00
2019-03-04T09:25:03.462Z,4036.00
2019-03-04T09:26:56.409Z,3608.00
2019-03-04T09:27:56.443Z,3264.00
2019-03-04T09:29:49.435Z,3536.00
2019-03-04T09:30:49.386Z,3744.00
2019-03-04T09:32:42.216Z,3488.00
2019-03-04T09:33:42.230Z,3340.00
2019-03-04T09:35:35.140Z,3832.00
2019-03-04T09:36:35.148Z,4936.00
2019-03-04T09:38:28.057Z,6172.00
2019-03-04T09:39:28.065Z,6780.00
2019-03-04T09:41:20.968Z,7328.00
2019-03-04T09:42:20.988Z,8480.00
2019-03-04T09:44:13.908Z,8436.00
2019-03-04T09:45:13.918Z,7900.00
2019-03-04T09:47:06.851Z,8600.00
2019-03-04T09:48:06.869Z,9060.00
2019-03-04T09:49:59.793Z,8140.00
2019-03-04T09:50:59.794Z,8536.00
2019-03-04T09:52:52.700Z,8248.00
2019-03-04T09:53:52.733Z,7688.00
2019-03-04T09:55:45.631Z,7536.00
2019-03-04T09:56:45.674Z,6128.00
2019-03-04T09:58:40.050Z,6236.00
2019-03-04T09:59:40.058Z,5484.00
2019-03-04T10:01:32.971Z,6816.00
2019-03-04T10:02:32.972Z,7808.00
2019-03-04T10:04:25.892Z,9776.00
2019-03-04T10:05:25.899Z,9712.00
2019-03-04T10:07:18.811Z,10736.00
2019-03-04T10:08:18.844Z,9820.00
2019-03-04T10:10:11.779Z,11144.00
2019-03-04T10:11:11.765Z,9932.00
2019-03-04T10:13:04.693Z,9124.00
2019-03-04T10:14:04.710Z,8800.00
2019-03-04T10:15:57.628Z,9608.00
2019-03-04T10:16:57.638Z,9728.00
2019-03-04T10:18:50.563Z,8884.00
2019-03-04T10:19:50.562Z,10788.00
2019-03-04T10:21:43.479Z,8928.00
2019-03-04T10:22:43.487Z,7756.00
2019-03-04T10:24:36.409Z,7836.00
2019-03-04T10:25:36.412Z,7080.00
2019-03-04T10:27:29.322Z,5924.00
2019-03-04T10:28:29.338Z,5504.00
2019-03-04T10:30:22.255Z,4828.00
2019-03-04T10:31:22.261Z,4212.00
2019-03-04T10:33:15.246Z,2728.00
2019-03-04T10:34:15.183Z,2196.00
2019-03-04T10:36:08.097Z,1980.00
2019-03-04T10:37:08.104Z,1952.00
2019-03-04T10:39:01.041Z,1772.00
2019-03-04T10:40:01.026Z,2340.00
2019-03-04T10:41:53.931Z,3092.00
2019-03-04T10:42:53.947Z,3604.00
2019-03-04T10:44:47.000Z,5452.00
2019-03-04T10:45:46.872Z,6792.00
2019-03-04T10:47:39.781Z,7520.00
2019-03-04T10:48:39.788Z,8532.00
2019-03-04T10:50:32.699Z,9224.00
2019-03-04T10:51:32.706Z,9508.00
2019-03-04T10:53:25.609Z,9268.00
2019-03-04T10:54:25.622Z,8928.00
2019-03-04T10:56:18.537Z,7944.00
2019-03-04T10:57:18.541Z,7668.00
2019-03-04T10:59:11.453Z,8660.00
2019-03-04T11:00:11.462Z,8552.00
2019-03-04T11:02:04.372Z,6916.00
2019-03-04T11:03:04.378Z,7896.00
2019-03-04T11:04:57.294Z,8816.00
2019-03-04T11:05:57.301Z,8728.00
2019-03-04T11:07:50.205Z,8640.00
2019-03-04T11:08:50.217Z,8316.00
2019-03-04T11:10:43.129Z,7420.00
2019-03-04T11:11:43.182Z,7096.00
2019-03-04T11:13:36.110Z,6844.00
2019-03-04T11:14:36.058Z,6808.00
2019-03-04T11:16:29.000Z,7392.00
2019-03-04T11:17:28.981Z,8148.00
2019-03-04T11:19:21.894Z,9196.00
2019-03-04T11:20:21.906Z,8328.00
2019-03-04T11:22:14.825Z,6288.00
2019-03-04T11:23:15.209Z,5616.00
2019-03-04T11:25:07.746Z,5832.00
2019-03-04T11:26:07.753Z,7144.00
2019-03-04T11:28:00.656Z,7496.00
2019-03-04T11:29:00.676Z,7436.00
2019-03-04T11:30:53.653Z,5500.00
2019-03-04T11:31:53.616Z,4324.00
2019-03-04T11:33:46.531Z,3796.00
2019-03-04T11:34:47.190Z,3428.00
2019-03-04T11:36:39.470Z,3456.00
2019-03-04T11:37:39.484Z,4472.00
2019-03-04T11:39:32.383Z,4412.00
2019-03-04T11:40:32.398Z,3804.00
2019-03-04T11:42:25.311Z,3684.00
2019-03-04T11:43:25.320Z,3192.00
2019-03-04T11:45:18.237Z,2960.00
2019-03-04T11:46:18.246Z,3008.00
2019-03-04T11:48:11.153Z,2312.00
2019-03-04T11:49:11.165Z,1672.00
2019-03-04T11:51:04.572Z,968.00
2019-03-04T11:52:04.601Z,1236.00
2019-03-04T11:53:57.485Z,1620.00
2019-03-04T11:54:57.498Z,1576.00
2019-03-04T11:56:50.414Z,1516.00
2019-03-04T11:57:50.422Z,1500.00
2019-03-04T11:59:44.177Z,1392.00
2019-03-04T12:00:44.188Z,1396.00
2019-03-04T12:02:39.189Z,1984.00
2019-03-04T12:03:37.111Z,2448.00
2019-03-04T12:05:30.020Z,3860.00
2019-03-04T12:06:30.024Z,4068.00
2019-03-04T12:08:23.423Z,4384.00
2019-03-04T12:09:23.434Z,4224.00
2019-03-04T12:11:16.378Z,4084.00
2019-03-04T12:12:16.348Z,4328.00
2019-03-04T12:14:09.251Z,4296.00
2019-03-04T12:15:09.265Z,4068.00
2019-03-04T12:17:02.306Z,3508.00
2019-03-04T12:18:02.199Z,3424.00
2019-03-04T12:19:55.099Z,5544.00
2019-03-04T12:20:55.110Z,7252.00
2019-03-04T12:22:48.037Z,8948.00
2019-03-04T12:23:48.039Z,7808.00
2019-03-04T12:25:41.461Z,7604.00
2019-03-04T12:26:41.491Z,7616.00
2019-03-04T12:28:34.564Z,8560.00
2019-03-04T12:29:34.583Z,9268.00
2019-03-04T12:31:28.458Z,10148.00
2019-03-04T12:32:27.497Z,10704.00
2019-03-04T12:34:24.644Z,10624.00
2019-03-04T12:35:20.414Z,10340.00
2019-03-04T12:37:13.324Z,9680.00
2019-03-04T12:38:13.336Z,9260.00
2019-03-04T12:40:06.254Z,8236.00
2019-03-04T12:41:06.254Z,7456.00
2019-03-04T12:42:59.166Z,6280.00
2019-03-04T12:43:59.169Z,6624.00
2019-03-04T12:45:52.095Z,6600.00
2019-03-04T12:46:52.096Z,5964.00
2019-03-04T12:48:45.005Z,6556.00
2019-03-04T12:49:45.019Z,7120.00
2019-03-04T12:51:37.932Z,7656.00
2019-03-04T12:52:37.938Z,7800.00
2019-03-04T12:54:30.842Z,7344.00
2019-03-04T12:55:30.858Z,9292.00
2019-03-04T12:57:23.773Z,7904.00
2019-03-04T12:58:23.773Z,9512.00
2019-03-04T13:00:16.676Z,4952.00
2019-03-04T13:01:16.691Z,4364.00
2019-03-04T13:03:09.602Z,4472.00
2019-03-04T13:04:09.607Z,4688.00
2019-03-04T13:06:02.525Z,5152.00
2019-03-04T13:07:02.533Z,5372.00
2019-03-04T13:08:55.436Z,5656.00
2019-03-04T13:09:55.451Z,5732.00
2019-03-04T13:11:48.362Z,5908.00
2019-03-04T13:12:48.379Z,6108.00
2019-03-04T13:14:41.278Z,6328.00
2019-03-04T13:15:41.285Z,6388.00
2019-03-04T13:17:34.199Z,6620.00
2019-03-04T13:18:34.202Z,6908.00
2019-03-04T13:20:27.115Z,7876.00
2019-03-04T13:21:27.124Z,8012.00
2019-03-04T13:23:20.039Z,8448.00
2019-03-04T13:24:20.046Z,8824.00
2019-03-04T13:26:12.964Z,9176.00
2019-03-04T13:27:12.962Z,9424.00
2019-03-04T13:29:06.372Z,9640.00
2019-03-04T13:30:06.386Z,9820.00
2019-03-04T13:31:59.313Z,10116.00
2019-03-04T13:32:59.302Z,10100.00
2019-03-04T13:34:52.215Z,9636.00
2019-03-04T13:35:52.232Z,9236.00
2019-03-04T13:37:45.145Z,8332.00
2019-03-04T13:38:45.145Z,7476.00
2019-03-04T13:40:38.050Z,6780.00
2019-03-04T13:41:38.064Z,6644.00
2019-03-04T13:43:30.978Z,6144.00
2019-03-04T13:44:30.982Z,6040.00
2019-03-04T13:46:23.894Z,6464.00
2019-03-04T13:47:23.902Z,6176.00
2019-03-04T13:49:16.806Z,4940.00
2019-03-04T13:50:16.821Z,4852.00
2019-03-04T13:52:09.737Z,6088.00
2019-03-04T13:53:09.764Z,6016.00
2019-03-04T13:55:02.653Z,4188.00
2019-03-04T13:56:02.665Z,4744.00
2019-03-04T13:57:55.581Z,4304.00
2019-03-04T13:58:55.587Z,4516.00
2019-03-04T14:00:48.496Z,6440.00
2019-03-04T14:01:48.503Z,7148.00
2019-03-04T14:03:42.416Z,7936.00
2019-03-04T14:04:42.564Z,7396.00
2019-03-04T14:06:35.340Z,5652.00
2019-03-04T14:07:35.341Z,4468.00
2019-03-04T14:09:29.245Z,4412.00
2019-03-04T14:10:29.259Z,5404.00
2019-03-04T14:12:22.173Z,6224.00
2019-03-04T14:13:22.174Z,5088.00
2019-03-04T14:15:15.113Z,6084.00
2019-03-04T14:16:15.155Z,6116.00
2019-03-04T14:18:08.175Z,4328.00
2019-03-04T14:19:08.119Z,3840.00
2019-03-04T14:21:01.028Z,3932.00
2019-03-04T14:22:01.045Z,4268.00
2019-03-04T14:23:53.956Z,5412.00
2019-03-04T14:24:53.962Z,5456.00
2019-03-04T14:26:46.876Z,4188.00
2019-03-04T14:27:46.881Z,4008.00
2019-03-04T14:29:39.852Z,3164.00
2019-03-04T14:30:39.802Z,2492.00
2019-03-04T14:32:32.728Z,1664.00
2019-03-04T14:33:32.723Z,2268.00
2019-03-04T14:35:25.657Z,5576.00
2019-03-04T14:36:25.695Z,5068.00
2019-03-04T14:38:18.597Z,5300.00
2019-03-04T14:39:18.590Z,5540.00
2019-03-04T14:41:11.495Z,5772.00
2019-03-04T14:42:11.511Z,5324.00
2019-03-04T14:44:04.424Z,5256.00
2019-03-04T14:45:04.431Z,5188.00
2019-03-04T14:46:57.343Z,4852.00
2019-03-04T14:47:57.351Z,5088.00
2019-03-04T14:49:50.254Z,5120.00
2019-03-04T14:50:50.276Z,4840.00
2019-03-04T14:52:43.181Z,4512.00
2019-03-04T14:53:43.193Z,4580.00
2019-03-04T14:55:36.095Z,4440.00
2019-03-04T14:56:36.116Z,4448.00
2019-03-04T14:58:29.023Z,4144.00
2019-03-04T14:59:29.027Z,3748.00
2019-03-04T15:01:21.962Z,2552.00
2019-03-04T15:02:21.983Z,2000.00
2019-03-04T15:04:14.893Z,1900.00
2019-03-04T15:05:14.899Z,1960.00
2019-03-04T15:07:07.808Z,2860.00
2019-03-04T15:08:07.815Z,3572.00
2019-03-04T15:10:00.718Z,3928.00
2019-03-04T15:11:00.730Z,3776.00
2019-03-04T15:12:53.642Z,4316.00
2019-03-04T15:13:53.648Z,4500.00
2019-03-04T15:15:47.049Z,3512.00
2019-03-04T15:16:47.061Z,3332.00
2019-03-04T15:18:39.981Z,3752.00
2019-03-04T15:19:39.983Z,3980.00
2019-03-04T15:21:32.888Z,2792.00
2019-03-04T15:22:35.226Z,3452.00
2019-03-04T15:24:25.851Z,3180.00
2019-03-04T15:25:25.849Z,2584.00
2019-03-04T15:27:18.757Z,2800.00
2019-03-04T15:28:18.761Z,2488.00
2019-03-04T15:30:11.669Z,2372.00
2019-03-04T15:31:11.674Z,2784.00
2019-03-04T15:33:04.593Z,3856.00
2019-03-04T15:34:04.596Z,3000.00
2019-03-04T15:35:57.500Z,2432.00
2019-03-04T15:36:57.511Z,2616.00
2019-03-04T15:38:50.424Z,2496.00
2019-03-04T15:39:50.436Z,2384.00
2019-03-04T15:41:43.339Z,2816.00
2019-03-04T15:42:43.437Z,3264.00
2019-03-04T15:44:36.262Z,3352.00
2019-03-04T15:45:36.285Z,3280.00
2019-03-04T15:47:29.181Z,2640.00
2019-03-04T15:48:29.189Z,2448.00
2019-03-04T15:50:22.094Z,2148.00
2019-03-04T15:51:22.108Z,1948.00
2019-03-04T15:53:15.019Z,2096.00
2019-03-04T15:54:15.025Z,2308.00
2019-03-04T15:56:07.926Z,1904.00
2019-03-04T15:57:07.945Z,1360.00
2019-03-04T15:59:00.855Z,1040.00
2019-03-04T16:00:00.863Z,1028.00
2019-03-04T16:01:53.759Z,1172.00
2019-03-04T16:02:53.771Z,1540.00
2019-03-04T16:04:46.699Z,1668.00
2019-03-04T16:05:46.709Z,1572.00
2019-03-04T16:07:40.145Z,1732.00
2019-03-04T16:08:40.144Z,1612.00
2019-03-04T16:10:33.110Z,1532.00
2019-03-04T16:11:33.061Z,1536.00
2019-03-04T16:13:25.972Z,1496.00
2019-03-04T16:14:26.061Z,1396.00
2019-03-04T16:16:18.881Z,1460.00
2019-03-04T16:17:18.894Z,1412.00
2019-03-04T16:19:11.798Z,1396.00
2019-03-04T16:20:16.068Z,1456.00
2019-03-04T16:22:04.709Z,1592.00
2019-03-04T16:23:04.716Z,1624.00
2019-03-04T16:24:57.631Z,1512.00
2019-03-04T16:25:57.627Z,1472.00
2019-03-04T16:27:50.544Z,1352.00
2019-03-04T16:28:50.544Z,1272.00
2019-03-04T16:30:43.463Z,1200.00
2019-03-04T16:31:43.488Z,1168.00
2019-03-04T16:33:36.392Z,1116.00
2019-03-04T16:34:36.394Z,1072.00
2019-03-04T16:36:29.293Z,964.00
2019-03-04T16:37:29.306Z,888.00
2019-03-04T16:39:22.276Z,768.00
2019-03-04T16:40:22.255Z,724.00
2019-03-04T16:42:15.159Z,664.00
2019-03-04T16:43:15.169Z,620.00
2019-03-04T16:45:08.078Z,588.00
2019-03-04T16:46:08.084Z,600.00
2019-03-04T16:48:01.066Z,628.00
2019-03-04T16:49:01.071Z,632.00
2019-03-04T16:50:53.913Z,600.00
2019-03-04T16:51:53.930Z,552.00
2019-03-04T16:53:46.840Z,472.00
2019-03-04T16:54:46.843Z,424.00
2019-03-04T16:56:39.744Z,360.00
2019-03-04T16:57:39.760Z,344.00
2019-03-04T16:59:32.664Z,308.00
2019-03-04T17:00:32.669Z,296.00
2019-03-04T17:02:26.063Z,264.00
2019-03-04T17:03:26.076Z,256.00
2019-03-04T17:05:18.984Z,228.00
2019-03-04T17:06:18.989Z,220.00
2019-03-04T17:08:12.388Z,188.00
2019-03-04T17:09:12.388Z,172.00
2019-03-04T17:11:05.302Z,140.00
2019-03-04T17:12:05.300Z,120.00
2019-03-04T17:13:58.210Z,100.00
2019-03-04T17:14:58.210Z,84.00
2019-03-04T17:16:51.117Z,68.00
2019-03-04T17:17:51.667Z,60.00
2019-03-04T17:19:44.027Z,48.00
2019-03-04T17:20:44.029Z,40.00
2019-03-04T17:22:36.928Z,32.00
2019-03-04T17:23:36.945Z,28.00
2019-03-04T17:25:29.848Z,24.00
2019-03-04T17:26:29.852Z,16.00
2019-03-04T17:28:22.761Z,12.00
2019-03-04T17:29:22.766Z,12.00
2019-03-04T17:31:15.668Z,8.00
2019-03-04T17:32:15.679Z,8.00
2019-03-04T17:34:08.584Z,4.00
2019-03-04T17:35:08.592Z,4.00
2019-03-04T17:37:01.515Z,4.00
2019-03-04T17:38:01.502Z,4.00
2019-03-04T17:39:54.407Z,0.00
2019-03-04T17:40:54.410Z,0.00
2019-03-04T17:42:47.322Z,0.00
2019-03-04T17:43:47.322Z,0.00
2019-03-04T17:45:40.225Z,0.00
2019-03-04T17:46:41.325Z,0.00
2019-03-04T17:48:33.158Z,0.00
2019-03-04T17:49:33.146Z,0.00
2019-03-04T17:51:26.046Z,0.00
2019-03-04T17:52:26.055Z,0.00
2019-03-04T17:54:18.983Z,0.00
2019-03-04T17:55:18.973Z,0.00
2019-03-04T17:57:11.879Z,0.00
2019-03-04T17:58:11.899Z,0.00
2019-03-04T18:00:04.793Z,0.00
2019-03-04T18:01:04.796Z,0.00
2019-03-04T18:02:57.695Z,0.00
2019-03-04T18:03:57.704Z,0.00
2019-03-04T18:05:50.610Z,0.00
2019-03-04T18:06:50.615Z,0.00